sensor_id;sensor_type;location;lat;lon;timestamp;P1;durP1;ratioP1;P2;durP2;ratioP2
28862;SDS011;15994;51.796;13.006;2024-02-23T00:00:10;1.85;;;0.80;;
28862;SDS011;15994;51.796;13.006;2024-02-23T00:02:37;1.30;;;0.80;;
28862;SDS011;15994;51.796;13.006;2024-02-23T00:05:04;1.08;;;0.55;;
28862;SDS011;15994;51.796;13.006;2024-02-23T00:07:31;1.05;;;0.60;;
28862;SDS011;15994;51.796;13.006;2024-02-23T00:09:58;1.30;;;0.80;;
28862;SDS011;15994;51.796;13.006;2024-02-23T00:12:25;1.02;;;0.60;;
28862;SDS011;15994;51.796;13.006;2024-02-23T00:14:52;1.20;;;0.60;;
28862;SDS011;15994;51.796;13.006;2024-02-23T00:17:19;2.33;;;0.68;;
28862;SDS011;15994;51.796;13.006;2024-02-23T00:19:47;1.45;;;0.68;;
28862;SDS011;15994;51.796;13.006;2024-02-23T00:22:14;1.33;;;0.70;;
28862;SDS011;15994;51.796;13.006;2024-02-23T00:24:41;1.15;;;0.68;;
28862;SDS011;15994;51.796;13.006;2024-02-23T00:27:08;2.17;;;0.80;;
28862;SDS011;15994;51.796;13.006;2024-02-23T00:29:35;0.70;;;0.50;;
28862;SDS011;15994;51.796;13.006;2024-02-23T00:32:02;1.30;;;0.80;;
28862;SDS011;15994;51.796;13.006;2024-02-23T00:34:29;1.05;;;0.60;;
28862;SDS011;15994;51.796;13.006;2024-02-23T00:36:56;1.17;;;0.60;;
28862;SDS011;15994;51.796;13.006;2024-02-23T00:39:23;1.85;;;0.77;;
28862;SDS011;15994;51.796;13.006;2024-02-23T00:41:51;1.40;;;0.80;;
28862;SDS011;15994;51.796;13.006;2024-02-23T00:44:17;1.45;;;0.73;;
28862;SDS011;15994;51.796;13.006;2024-02-23T00:46:44;1.90;;;0.75;;
28862;SDS011;15994;51.796;13.006;2024-02-23T00:49:11;1.67;;;0.80;;
28862;SDS011;15994;51.796;13.006;2024-02-23T00:51:38;1.10;;;0.75;;
28862;SDS011;15994;51.796;13.006;2024-02-23T00:54:05;1.10;;;0.70;;
28862;SDS011;15994;51.796;13.006;2024-02-23T00:56:32;1.30;;;0.63;;
28862;SDS011;15994;51.796;13.006;2024-02-23T00:58:59;1.70;;;0.77;;
28862;SDS011;15994;51.796;13.006;2024-02-23T01:01:26;2.10;;;0.60;;
28862;SDS011;15994;51.796;13.006;2024-02-23T01:03:53;2.25;;;0.80;;
28862;SDS011;15994;51.796;13.006;2024-02-23T01:06:20;1.08;;;0.60;;
28862;SDS011;15994;51.796;13.006;2024-02-23T01:08:47;2.15;;;0.82;;
28862;SDS011;15994;51.796;13.006;2024-02-23T01:11:14;1.23;;;0.68;;
28862;SDS011;15994;51.796;13.006;2024-02-23T01:13:41;1.02;;;0.60;;
28862;SDS011;15994;51.796;13.006;2024-02-23T01:16:08;1.75;;;0.80;;
28862;SDS011;15994;51.796;13.006;2024-02-23T01:18:35;1.67;;;0.47;;
28862;SDS011;15994;51.796;13.006;2024-02-23T01:21:02;1.00;;;0.70;;
28862;SDS011;15994;51.796;13.006;2024-02-23T01:23:29;2.30;;;0.60;;
28862;SDS011;15994;51.796;13.006;2024-02-23T01:25:56;1.00;;;0.50;;
28862;SDS011;15994;51.796;13.006;2024-02-23T01:28:24;2.15;;;0.60;;
28862;SDS011;15994;51.796;13.006;2024-02-23T01:30:51;2.10;;;0.50;;
28862;SDS011;15994;51.796;13.006;2024-02-23T01:33:18;1.48;;;0.52;;
28862;SDS011;15994;51.796;13.006;2024-02-23T01:35:45;0.57;;;0.40;;
28862;SDS011;15994;51.796;13.006;2024-02-23T01:38:12;1.27;;;0.40;;
28862;SDS011;15994;51.796;13.006;2024-02-23T01:40:43;0.93;;;0.45;;
28862;SDS011;15994;51.796;13.006;2024-02-23T01:43:10;1.48;;;0.50;;
28862;SDS011;15994;51.796;13.006;2024-02-23T01:45:37;1.17;;;0.40;;
28862;SDS011;15994;51.796;13.006;2024-02-23T01:48:04;1.38;;;0.40;;
28862;SDS011;15994;51.796;13.006;2024-02-23T01:50:32;1.15;;;0.32;;
28862;SDS011;15994;51.796;13.006;2024-02-23T01:53:00;1.45;;;0.40;;
28862;SDS011;15994;51.796;13.006;2024-02-23T01:55:27;0.85;;;0.40;;
28862;SDS011;15994;51.796;13.006;2024-02-23T01:57:54;2.80;;;0.50;;
28862;SDS011;15994;51.796;13.006;2024-02-23T02:00:22;1.50;;;0.40;;
28862;SDS011;15994;51.796;13.006;2024-02-23T02:02:49;0.77;;;0.30;;
28862;SDS011;15994;51.796;13.006;2024-02-23T02:05:16;2.83;;;0.32;;
28862;SDS011;15994;51.796;13.006;2024-02-23T02:07:43;1.58;;;0.40;;
28862;SDS011;15994;51.796;13.006;2024-02-23T02:10:11;1.75;;;0.40;;
28862;SDS011;15994;51.796;13.006;2024-02-23T02:12:38;1.30;;;0.40;;
28862;SDS011;15994;51.796;13.006;2024-02-23T02:15:05;1.13;;;0.40;;
28862;SDS011;15994;51.796;13.006;2024-02-23T02:17:32;0.65;;;0.20;;
28862;SDS011;15994;51.796;13.006;2024-02-23T02:19:59;0.70;;;0.40;;
28862;SDS011;15994;51.796;13.006;2024-02-23T02:22:29;1.48;;;0.40;;
28862;SDS011;15994;51.796;13.006;2024-02-23T02:24:56;2.05;;;0.45;;
28862;SDS011;15994;51.796;13.006;2024-02-23T02:27:23;2.25;;;0.60;;
28862;SDS011;15994;51.796;13.006;2024-02-23T02:29:50;2.03;;;0.40;;
28862;SDS011;15994;51.796;13.006;2024-02-23T02:32:17;2.53;;;0.47;;
28862;SDS011;15994;51.796;13.006;2024-02-23T02:34:44;2.70;;;0.57;;
28862;SDS011;15994;51.796;13.006;2024-02-23T02:37:11;1.33;;;0.50;;
28862;SDS011;15994;51.796;13.006;2024-02-23T02:39:38;5.00;;;0.40;;
28862;SDS011;15994;51.796;13.006;2024-02-23T02:42:05;1.88;;;0.50;;
28862;SDS011;15994;51.796;13.006;2024-02-23T02:44:32;0.90;;;0.40;;
28862;SDS011;15994;51.796;13.006;2024-02-23T02:46:59;1.00;;;0.30;;
28862;SDS011;15994;51.796;13.006;2024-02-23T02:49:26;2.78;;;0.40;;
28862;SDS011;15994;51.796;13.006;2024-02-23T02:51:53;1.02;;;0.40;;
28862;SDS011;15994;51.796;13.006;2024-02-23T02:54:19;0.98;;;0.30;;
28862;SDS011;15994;51.796;13.006;2024-02-23T02:56:47;1.15;;;0.30;;
28862;SDS011;15994;51.796;13.006;2024-02-23T02:59:15;1.13;;;0.35;;
28862;SDS011;15994;51.796;13.006;2024-02-23T03:01:43;1.90;;;0.40;;
28862;SDS011;15994;51.796;13.006;2024-02-23T03:04:10;1.58;;;0.30;;
28862;SDS011;15994;51.796;13.006;2024-02-23T03:06:37;2.17;;;0.47;;
28862;SDS011;15994;51.796;13.006;2024-02-23T03:09:04;1.70;;;0.30;;
28862;SDS011;15994;51.796;13.006;2024-02-23T03:11:32;1.70;;;0.40;;
28862;SDS011;15994;51.796;13.006;2024-02-23T03:13:59;1.55;;;0.40;;
28862;SDS011;15994;51.796;13.006;2024-02-23T03:16:26;3.17;;;0.30;;
28862;SDS011;15994;51.796;13.006;2024-02-23T03:18:55;2.63;;;0.30;;
28862;SDS011;15994;51.796;13.006;2024-02-23T03:21:22;2.40;;;0.47;;
28862;SDS011;15994;51.796;13.006;2024-02-23T03:23:49;1.75;;;0.32;;
28862;SDS011;15994;51.796;13.006;2024-02-23T03:26:16;0.82;;;0.20;;
28862;SDS011;15994;51.796;13.006;2024-02-23T03:28:43;1.83;;;0.50;;
28862;SDS011;15994;51.796;13.006;2024-02-23T03:31:10;1.63;;;0.30;;
28862;SDS011;15994;51.796;13.006;2024-02-23T03:33:36;2.60;;;0.47;;
28862;SDS011;15994;51.796;13.006;2024-02-23T03:36:03;2.05;;;0.32;;
28862;SDS011;15994;51.796;13.006;2024-02-23T03:38:30;1.27;;;0.30;;
28862;SDS011;15994;51.796;13.006;2024-02-23T03:40:58;2.03;;;0.40;;
28862;SDS011;15994;51.796;13.006;2024-02-23T03:43:26;1.33;;;0.50;;
28862;SDS011;15994;51.796;13.006;2024-02-23T03:45:53;3.63;;;0.35;;
28862;SDS011;15994;51.796;13.006;2024-02-23T03:48:20;0.95;;;0.40;;
28862;SDS011;15994;51.796;13.006;2024-02-23T03:50:47;2.08;;;0.47;;
28862;SDS011;15994;51.796;13.006;2024-02-23T03:53:13;1.98;;;0.40;;
28862;SDS011;15994;51.796;13.006;2024-02-23T03:55:40;1.45;;;0.40;;
28862;SDS011;15994;51.796;13.006;2024-02-23T03:58:07;2.47;;;0.50;;
28862;SDS011;15994;51.796;13.006;2024-02-23T04:00:35;0.60;;;0.32;;
28862;SDS011;15994;51.796;13.006;2024-02-23T04:03:02;1.42;;;0.40;;
28862;SDS011;15994;51.796;13.006;2024-02-23T04:05:28;1.33;;;0.30;;
28862;SDS011;15994;51.796;13.006;2024-02-23T04:07:55;0.95;;;0.30;;
28862;SDS011;15994;51.796;13.006;2024-02-23T04:10:22;1.38;;;0.40;;
28862;SDS011;15994;51.796;13.006;2024-02-23T04:12:49;1.08;;;0.30;;
28862;SDS011;15994;51.796;13.006;2024-02-23T04:15:16;1.88;;;0.40;;
28862;SDS011;15994;51.796;13.006;2024-02-23T04:17:44;0.82;;;0.25;;
28862;SDS011;15994;51.796;13.006;2024-02-23T04:20:11;0.80;;;0.38;;
28862;SDS011;15994;51.796;13.006;2024-02-23T04:22:38;1.52;;;0.40;;
28862;SDS011;15994;51.796;13.006;2024-02-23T04:25:05;3.25;;;0.30;;
28862;SDS011;15994;51.796;13.006;2024-02-23T04:27:32;1.10;;;0.40;;
28862;SDS011;15994;51.796;13.006;2024-02-23T04:29:59;1.30;;;0.30;;
28862;SDS011;15994;51.796;13.006;2024-02-23T04:32:26;1.88;;;0.25;;
28862;SDS011;15994;51.796;13.006;2024-02-23T04:34:53;1.52;;;0.40;;
28862;SDS011;15994;51.796;13.006;2024-02-23T04:37:20;1.02;;;0.40;;
28862;SDS011;15994;51.796;13.006;2024-02-23T04:39:47;1.23;;;0.30;;
28862;SDS011;15994;51.796;13.006;2024-02-23T04:42:14;1.00;;;0.30;;
28862;SDS011;15994;51.796;13.006;2024-02-23T04:44:41;0.73;;;0.20;;
28862;SDS011;15994;51.796;13.006;2024-02-23T04:47:08;2.35;;;0.40;;
28862;SDS011;15994;51.796;13.006;2024-02-23T04:49:35;3.22;;;0.50;;
28862;SDS011;15994;51.796;13.006;2024-02-23T04:52:02;3.42;;;0.40;;
28862;SDS011;15994;51.796;13.006;2024-02-23T04:54:29;4.38;;;0.45;;
28862;SDS011;15994;51.796;13.006;2024-02-23T04:56:56;1.60;;;0.30;;
28862;SDS011;15994;51.796;13.006;2024-02-23T04:59:23;1.27;;;0.40;;
28862;SDS011;15994;51.796;13.006;2024-02-23T05:01:50;2.45;;;0.30;;
28862;SDS011;15994;51.796;13.006;2024-02-23T05:04:17;2.40;;;0.40;;
28862;SDS011;15994;51.796;13.006;2024-02-23T05:06:44;0.88;;;0.32;;
28862;SDS011;15994;51.796;13.006;2024-02-23T05:09:11;1.85;;;0.45;;
28862;SDS011;15994;51.796;13.006;2024-02-23T05:11:38;0.50;;;0.20;;
28862;SDS011;15994;51.796;13.006;2024-02-23T05:14:05;1.63;;;0.28;;
28862;SDS011;15994;51.796;13.006;2024-02-23T05:16:32;1.50;;;0.40;;
28862;SDS011;15994;51.796;13.006;2024-02-23T05:18:59;1.40;;;0.38;;
28862;SDS011;15994;51.796;13.006;2024-02-23T05:21:26;3.25;;;0.32;;
28862;SDS011;15994;51.796;13.006;2024-02-23T05:23:53;2.83;;;0.50;;
28862;SDS011;15994;51.796;13.006;2024-02-23T05:26:20;1.35;;;0.30;;
28862;SDS011;15994;51.796;13.006;2024-02-23T05:28:47;0.95;;;0.30;;
28862;SDS011;15994;51.796;13.006;2024-02-23T05:31:13;1.88;;;0.30;;
28862;SDS011;15994;51.796;13.006;2024-02-23T05:33:40;1.73;;;0.52;;
28862;SDS011;15994;51.796;13.006;2024-02-23T05:36:07;2.30;;;0.40;;
28862;SDS011;15994;51.796;13.006;2024-02-23T05:38:34;1.35;;;0.30;;
28862;SDS011;15994;51.796;13.006;2024-02-23T05:41:01;2.50;;;0.30;;
28862;SDS011;15994;51.796;13.006;2024-02-23T05:43:30;1.77;;;0.40;;
28862;SDS011;15994;51.796;13.006;2024-02-23T05:45:57;3.78;;;0.40;;
28862;SDS011;15994;51.796;13.006;2024-02-23T05:48:24;2.60;;;0.30;;
28862;SDS011;15994;51.796;13.006;2024-02-23T05:50:50;0.90;;;0.40;;
28862;SDS011;15994;51.796;13.006;2024-02-23T05:53:17;0.68;;;0.28;;
28862;SDS011;15994;51.796;13.006;2024-02-23T05:55:44;1.02;;;0.40;;
28862;SDS011;15994;51.796;13.006;2024-02-23T05:58:11;0.93;;;0.30;;
28862;SDS011;15994;51.796;13.006;2024-02-23T06:00:41;1.20;;;0.35;;
28862;SDS011;15994;51.796;13.006;2024-02-23T06:03:08;0.75;;;0.30;;
28862;SDS011;15994;51.796;13.006;2024-02-23T06:05:35;1.73;;;0.38;;
28862;SDS011;15994;51.796;13.006;2024-02-23T06:08:02;2.47;;;0.40;;
28862;SDS011;15994;51.796;13.006;2024-02-23T06:10:29;1.33;;;0.40;;
28862;SDS011;15994;51.796;13.006;2024-02-23T06:12:56;1.73;;;0.30;;
28862;SDS011;15994;51.796;13.006;2024-02-23T06:15:23;2.30;;;0.30;;
28862;SDS011;15994;51.796;13.006;2024-02-23T06:17:50;0.55;;;0.30;;
28862;SDS011;15994;51.796;13.006;2024-02-23T06:20:17;0.60;;;0.28;;
28862;SDS011;15994;51.796;13.006;2024-02-23T06:22:44;2.40;;;0.30;;
28862;SDS011;15994;51.796;13.006;2024-02-23T06:25:11;1.27;;;0.45;;
28862;SDS011;15994;51.796;13.006;2024-02-23T06:27:38;1.25;;;0.30;;
28862;SDS011;15994;51.796;13.006;2024-02-23T06:30:06;2.95;;;0.38;;
28862;SDS011;15994;51.796;13.006;2024-02-23T06:32:33;2.72;;;0.20;;
28862;SDS011;15994;51.796;13.006;2024-02-23T06:35:00;1.35;;;0.38;;
28862;SDS011;15994;51.796;13.006;2024-02-23T06:37:28;1.38;;;0.40;;
28862;SDS011;15994;51.796;13.006;2024-02-23T06:39:54;1.00;;;0.30;;
28862;SDS011;15994;51.796;13.006;2024-02-23T06:42:22;0.88;;;0.30;;
28862;SDS011;15994;51.796;13.006;2024-02-23T06:44:49;1.65;;;0.32;;
28862;SDS011;15994;51.796;13.006;2024-02-23T06:47:16;1.10;;;0.47;;
28862;SDS011;15994;51.796;13.006;2024-02-23T06:49:43;1.20;;;0.28;;
28862;SDS011;15994;51.796;13.006;2024-02-23T06:52:10;2.00;;;0.30;;
28862;SDS011;15994;51.796;13.006;2024-02-23T06:54:37;1.13;;;0.30;;
28862;SDS011;15994;51.796;13.006;2024-02-23T06:57:04;1.35;;;0.30;;
28862;SDS011;15994;51.796;13.006;2024-02-23T06:59:31;1.70;;;0.32;;
28862;SDS011;15994;51.796;13.006;2024-02-23T07:01:58;0.47;;;0.25;;
28862;SDS011;15994;51.796;13.006;2024-02-23T07:04:25;0.85;;;0.15;;
28862;SDS011;15994;51.796;13.006;2024-02-23T07:06:53;0.15;;;0.10;;
28862;SDS011;15994;51.796;13.006;2024-02-23T07:09:20;0.50;;;0.20;;
28862;SDS011;15994;51.796;13.006;2024-02-23T07:11:47;0.43;;;0.20;;
28862;SDS011;15994;51.796;13.006;2024-02-23T07:14:14;0.85;;;0.20;;
28862;SDS011;15994;51.796;13.006;2024-02-23T07:16:42;0.30;;;0.20;;
28862;SDS011;15994;51.796;13.006;2024-02-23T07:19:09;2.30;;;0.30;;
28862;SDS011;15994;51.796;13.006;2024-02-23T07:21:37;0.63;;;0.20;;
28862;SDS011;15994;51.796;13.006;2024-02-23T07:24:04;0.45;;;0.20;;
28862;SDS011;15994;51.796;13.006;2024-02-23T07:26:31;0.52;;;0.20;;
28862;SDS011;15994;51.796;13.006;2024-02-23T07:28:58;1.45;;;0.38;;
28862;SDS011;15994;51.796;13.006;2024-02-23T07:31:25;1.02;;;0.30;;
28862;SDS011;15994;51.796;13.006;2024-02-23T07:33:52;1.27;;;0.20;;
28862;SDS011;15994;51.796;13.006;2024-02-23T07:36:19;0.65;;;0.25;;
28862;SDS011;15994;51.796;13.006;2024-02-23T07:38:47;1.05;;;0.30;;
28862;SDS011;15994;51.796;13.006;2024-02-23T07:41:14;0.88;;;0.20;;
28862;SDS011;15994;51.796;13.006;2024-02-23T07:43:42;0.45;;;0.20;;
28862;SDS011;15994;51.796;13.006;2024-02-23T07:46:09;0.85;;;0.20;;
28862;SDS011;15994;51.796;13.006;2024-02-23T07:48:36;1.00;;;0.20;;
28862;SDS011;15994;51.796;13.006;2024-02-23T07:51:04;0.93;;;0.30;;
28862;SDS011;15994;51.796;13.006;2024-02-23T07:53:31;3.15;;;0.40;;
28862;SDS011;15994;51.796;13.006;2024-02-23T07:55:59;1.83;;;0.40;;
28862;SDS011;15994;51.796;13.006;2024-02-23T07:58:27;1.95;;;0.30;;
28862;SDS011;15994;51.796;13.006;2024-02-23T08:00:54;3.47;;;0.40;;
28862;SDS011;15994;51.796;13.006;2024-02-23T08:03:21;1.13;;;0.50;;
28862;SDS011;15994;51.796;13.006;2024-02-23T08:05:48;1.05;;;0.40;;
28862;SDS011;15994;51.796;13.006;2024-02-23T08:08:15;2.58;;;0.40;;
28862;SDS011;15994;51.796;13.006;2024-02-23T08:10:42;1.63;;;0.30;;
28862;SDS011;15994;51.796;13.006;2024-02-23T08:13:09;2.58;;;0.40;;
28862;SDS011;15994;51.796;13.006;2024-02-23T08:15:36;2.25;;;0.50;;
28862;SDS011;15994;51.796;13.006;2024-02-23T08:18:03;1.55;;;0.20;;
28862;SDS011;15994;51.796;13.006;2024-02-23T08:20:30;1.73;;;0.30;;
28862;SDS011;15994;51.796;13.006;2024-02-23T08:22:57;2.97;;;0.40;;
28862;SDS011;15994;51.796;13.006;2024-02-23T08:25:24;0.70;;;0.30;;
28862;SDS011;15994;51.796;13.006;2024-02-23T08:27:53;1.98;;;0.50;;
28862;SDS011;15994;51.796;13.006;2024-02-23T08:30:20;1.63;;;0.30;;
28862;SDS011;15994;51.796;13.006;2024-02-23T08:32:47;1.33;;;0.30;;
28862;SDS011;15994;51.796;13.006;2024-02-23T08:35:14;1.25;;;0.40;;
28862;SDS011;15994;51.796;13.006;2024-02-23T08:37:41;1.27;;;0.50;;
28862;SDS011;15994;51.796;13.006;2024-02-23T08:40:08;1.55;;;0.28;;
28862;SDS011;15994;51.796;13.006;2024-02-23T08:42:35;1.17;;;0.50;;
28862;SDS011;15994;51.796;13.006;2024-02-23T08:45:02;2.58;;;0.50;;
28862;SDS011;15994;51.796;13.006;2024-02-23T08:47:30;2.80;;;0.40;;
28862;SDS011;15994;51.796;13.006;2024-02-23T08:49:59;1.33;;;0.20;;
28862;SDS011;15994;51.796;13.006;2024-02-23T08:52:27;1.83;;;0.40;;
28862;SDS011;15994;51.796;13.006;2024-02-23T08:54:53;1.90;;;0.30;;
28862;SDS011;15994;51.796;13.006;2024-02-23T08:57:20;1.20;;;0.20;;
28862;SDS011;15994;51.796;13.006;2024-02-23T08:59:51;2.63;;;0.50;;
28862;SDS011;15994;51.796;13.006;2024-02-23T09:02:18;2.15;;;0.50;;
28862;SDS011;15994;51.796;13.006;2024-02-23T09:04:45;3.65;;;0.40;;
28862;SDS011;15994;51.796;13.006;2024-02-23T09:07:12;1.42;;;0.30;;
28862;SDS011;15994;51.796;13.006;2024-02-23T09:09:38;1.30;;;0.25;;
28862;SDS011;15994;51.796;13.006;2024-02-23T09:12:05;1.02;;;0.30;;
28862;SDS011;15994;51.796;13.006;2024-02-23T09:14:35;2.53;;;0.30;;
28862;SDS011;15994;51.796;13.006;2024-02-23T09:17:02;1.17;;;0.30;;
28862;SDS011;15994;51.796;13.006;2024-02-23T09:19:30;1.25;;;0.45;;
28862;SDS011;15994;51.796;13.006;2024-02-23T09:21:57;1.80;;;0.50;;
28862;SDS011;15994;51.796;13.006;2024-02-23T09:24:25;1.75;;;0.38;;
28862;SDS011;15994;51.796;13.006;2024-02-23T09:26:52;1.45;;;0.28;;
28862;SDS011;15994;51.796;13.006;2024-02-23T09:29:18;1.70;;;0.30;;
28862;SDS011;15994;51.796;13.006;2024-02-23T09:31:46;3.70;;;0.60;;
28862;SDS011;15994;51.796;13.006;2024-02-23T09:34:13;2.78;;;0.40;;
28862;SDS011;15994;51.796;13.006;2024-02-23T09:36:40;2.40;;;0.30;;
28862;SDS011;15994;51.796;13.006;2024-02-23T09:39:07;1.85;;;0.38;;
28862;SDS011;15994;51.796;13.006;2024-02-23T09:41:34;2.13;;;0.65;;
28862;SDS011;15994;51.796;13.006;2024-02-23T09:44:01;1.65;;;0.30;;
28862;SDS011;15994;51.796;13.006;2024-02-23T09:46:28;1.25;;;0.40;;
28862;SDS011;15994;51.796;13.006;2024-02-23T09:48:55;1.33;;;0.32;;
28862;SDS011;15994;51.796;13.006;2024-02-23T09:51:22;2.05;;;0.32;;
28862;SDS011;15994;51.796;13.006;2024-02-23T09:53:49;1.50;;;0.40;;
28862;SDS011;15994;51.796;13.006;2024-02-23T09:56:17;0.85;;;0.40;;
28862;SDS011;15994;51.796;13.006;2024-02-23T09:58:44;2.30;;;0.55;;
28862;SDS011;15994;51.796;13.006;2024-02-23T10:01:15;1.60;;;0.40;;
28862;SDS011;15994;51.796;13.006;2024-02-23T10:03:44;1.92;;;0.55;;
28862;SDS011;15994;51.796;13.006;2024-02-23T10:06:11;2.50;;;0.65;;
28862;SDS011;15994;51.796;13.006;2024-02-23T10:08:38;3.17;;;0.55;;
28862;SDS011;15994;51.796;13.006;2024-02-23T10:11:05;2.65;;;0.50;;
28862;SDS011;15994;51.796;13.006;2024-02-23T10:13:33;1.75;;;0.40;;
28862;SDS011;15994;51.796;13.006;2024-02-23T10:16:00;1.08;;;0.30;;
28862;SDS011;15994;51.796;13.006;2024-02-23T10:18:27;2.58;;;0.35;;
28862;SDS011;15994;51.796;13.006;2024-02-23T10:20:53;3.30;;;0.50;;
28862;SDS011;15994;51.796;13.006;2024-02-23T10:23:22;1.88;;;0.50;;
28862;SDS011;15994;51.796;13.006;2024-02-23T10:25:50;3.33;;;0.40;;
28862;SDS011;15994;51.796;13.006;2024-02-23T10:28:17;2.17;;;0.50;;
28862;SDS011;15994;51.796;13.006;2024-02-23T10:30:47;2.47;;;0.47;;
28862;SDS011;15994;51.796;13.006;2024-02-23T10:33:14;2.63;;;0.50;;
28862;SDS011;15994;51.796;13.006;2024-02-23T10:35:41;3.80;;;0.68;;
28862;SDS011;15994;51.796;13.006;2024-02-23T10:38:10;1.80;;;0.47;;
28862;SDS011;15994;51.796;13.006;2024-02-23T10:40:38;1.85;;;0.55;;
28862;SDS011;15994;51.796;13.006;2024-02-23T10:43:07;2.72;;;0.52;;
28862;SDS011;15994;51.796;13.006;2024-02-23T10:45:36;3.92;;;0.40;;
28862;SDS011;15994;51.796;13.006;2024-02-23T10:48:04;3.58;;;0.55;;
28862;SDS011;15994;51.796;13.006;2024-02-23T10:50:31;2.20;;;0.47;;
28862;SDS011;15994;51.796;13.006;2024-02-23T10:52:59;2.00;;;0.50;;
28862;SDS011;15994;51.796;13.006;2024-02-23T10:55:27;2.13;;;0.60;;
28862;SDS011;15994;51.796;13.006;2024-02-23T10:57:55;2.83;;;0.65;;
28862;SDS011;15994;51.796;13.006;2024-02-23T11:00:23;1.60;;;0.50;;
28862;SDS011;15994;51.796;13.006;2024-02-23T11:02:51;2.03;;;0.40;;
28862;SDS011;15994;51.796;13.006;2024-02-23T11:05:19;2.70;;;0.60;;
28862;SDS011;15994;51.796;13.006;2024-02-23T11:07:47;1.73;;;0.40;;
28862;SDS011;15994;51.796;13.006;2024-02-23T11:10:15;4.53;;;0.52;;
28862;SDS011;15994;51.796;13.006;2024-02-23T11:12:43;1.45;;;0.43;;
28862;SDS011;15994;51.796;13.006;2024-02-23T11:15:25;2.10;;;0.50;;
28862;SDS011;15994;51.796;13.006;2024-02-23T11:17:52;1.80;;;0.40;;
28862;SDS011;15994;51.796;13.006;2024-02-23T11:20:20;2.03;;;0.40;;
28862;SDS011;15994;51.796;13.006;2024-02-23T11:22:51;2.22;;;0.45;;
28862;SDS011;15994;51.796;13.006;2024-02-23T11:25:19;2.45;;;0.73;;
28862;SDS011;15994;51.796;13.006;2024-02-23T11:27:49;1.38;;;0.55;;
28862;SDS011;15994;51.796;13.006;2024-02-23T11:30:16;1.58;;;0.40;;
28862;SDS011;15994;51.796;13.006;2024-02-23T11:32:44;2.25;;;0.47;;
28862;SDS011;15994;51.796;13.006;2024-02-23T11:35:12;1.38;;;0.50;;
28862;SDS011;15994;51.796;13.006;2024-02-23T11:37:48;4.38;;;0.68;;
28862;SDS011;15994;51.796;13.006;2024-02-23T11:40:17;1.33;;;0.40;;
28862;SDS011;15994;51.796;13.006;2024-02-23T11:42:44;1.70;;;0.50;;
28862;SDS011;15994;51.796;13.006;2024-02-23T11:45:11;2.78;;;0.40;;
28862;SDS011;15994;51.796;13.006;2024-02-23T11:47:38;2.05;;;0.50;;
28862;SDS011;15994;51.796;13.006;2024-02-23T11:50:08;2.58;;;0.40;;
28862;SDS011;15994;51.796;13.006;2024-02-23T11:52:38;3.58;;;0.60;;
28862;SDS011;15994;51.796;13.006;2024-02-23T11:55:05;1.15;;;0.40;;
28862;SDS011;15994;51.796;13.006;2024-02-23T11:57:33;2.95;;;0.50;;
28862;SDS011;15994;51.796;13.006;2024-02-23T12:00:01;1.77;;;0.40;;
28862;SDS011;15994;51.796;13.006;2024-02-23T12:02:28;2.17;;;0.38;;
28862;SDS011;15994;51.796;13.006;2024-02-23T12:04:55;1.17;;;0.50;;
28862;SDS011;15994;51.796;13.006;2024-02-23T12:07:22;4.32;;;0.63;;
28862;SDS011;15994;51.796;13.006;2024-02-23T12:09:51;2.08;;;0.60;;
28862;SDS011;15994;51.796;13.006;2024-02-23T12:12:18;1.50;;;0.57;;
28862;SDS011;15994;51.796;13.006;2024-02-23T12:14:45;3.22;;;0.70;;
28862;SDS011;15994;51.796;13.006;2024-02-23T12:17:12;2.60;;;0.50;;
28862;SDS011;15994;51.796;13.006;2024-02-23T12:19:39;3.28;;;0.40;;
28862;SDS011;15994;51.796;13.006;2024-02-23T12:22:06;2.20;;;0.20;;
28862;SDS011;15994;51.796;13.006;2024-02-23T12:24:36;2.88;;;0.55;;
28862;SDS011;15994;51.796;13.006;2024-02-23T12:27:03;3.40;;;0.60;;
28862;SDS011;15994;51.796;13.006;2024-02-23T12:29:31;1.88;;;0.40;;
28862;SDS011;15994;51.796;13.006;2024-02-23T12:32:04;1.50;;;0.40;;
28862;SDS011;15994;51.796;13.006;2024-02-23T12:34:31;1.92;;;0.57;;
28862;SDS011;15994;51.796;13.006;2024-02-23T12:36:58;3.15;;;0.60;;
28862;SDS011;15994;51.796;13.006;2024-02-23T12:39:25;2.00;;;0.50;;
28862;SDS011;15994;51.796;13.006;2024-02-23T12:41:52;2.63;;;0.60;;
28862;SDS011;15994;51.796;13.006;2024-02-23T12:44:21;1.63;;;0.60;;
28862;SDS011;15994;51.796;13.006;2024-02-23T12:46:48;1.27;;;0.43;;
28862;SDS011;15994;51.796;13.006;2024-02-23T12:49:15;4.03;;;0.70;;
28862;SDS011;15994;51.796;13.006;2024-02-23T12:51:42;2.50;;;0.60;;
28862;SDS011;15994;51.796;13.006;2024-02-23T12:54:09;6.18;;;0.60;;
28862;SDS011;15994;51.796;13.006;2024-02-23T12:56:36;1.52;;;0.50;;
28862;SDS011;15994;51.796;13.006;2024-02-23T12:59:03;3.83;;;0.90;;
28862;SDS011;15994;51.796;13.006;2024-02-23T13:01:30;1.85;;;0.60;;
28862;SDS011;15994;51.796;13.006;2024-02-23T13:04:01;3.03;;;0.68;;
28862;SDS011;15994;51.796;13.006;2024-02-23T13:06:28;1.88;;;0.60;;
28862;SDS011;15994;51.796;13.006;2024-02-23T13:08:55;2.42;;;0.47;;
28862;SDS011;15994;51.796;13.006;2024-02-23T13:11:22;4.28;;;0.60;;
28862;SDS011;15994;51.796;13.006;2024-02-23T13:13:49;3.25;;;0.70;;
28862;SDS011;15994;51.796;13.006;2024-02-23T13:16:16;2.28;;;0.60;;
28862;SDS011;15994;51.796;13.006;2024-02-23T13:18:43;1.58;;;0.47;;
28862;SDS011;15994;51.796;13.006;2024-02-23T13:21:11;1.98;;;0.40;;
28862;SDS011;15994;51.796;13.006;2024-02-23T13:23:38;2.97;;;0.68;;
28862;SDS011;15994;51.796;13.006;2024-02-23T13:26:07;2.58;;;0.47;;
28862;SDS011;15994;51.796;13.006;2024-02-23T13:28:35;2.30;;;0.40;;
28862;SDS011;15994;51.796;13.006;2024-02-23T13:31:02;2.40;;;0.63;;
28862;SDS011;15994;51.796;13.006;2024-02-23T13:33:29;2.05;;;0.68;;
28862;SDS011;15994;51.796;13.006;2024-02-23T13:35:56;2.00;;;0.40;;
28862;SDS011;15994;51.796;13.006;2024-02-23T13:38:23;2.53;;;0.52;;
28862;SDS011;15994;51.796;13.006;2024-02-23T13:40:50;2.25;;;0.50;;
28862;SDS011;15994;51.796;13.006;2024-02-23T13:43:17;3.63;;;0.70;;
28862;SDS011;15994;51.796;13.006;2024-02-23T13:45:51;2.90;;;0.47;;
28862;SDS011;15994;51.796;13.006;2024-02-23T13:48:18;3.53;;;0.55;;
28862;SDS011;15994;51.796;13.006;2024-02-23T13:50:48;2.65;;;0.60;;
28862;SDS011;15994;51.796;13.006;2024-02-23T13:53:15;3.08;;;0.70;;
28862;SDS011;15994;51.796;13.006;2024-02-23T13:55:42;2.63;;;0.52;;
28862;SDS011;15994;51.796;13.006;2024-02-23T13:58:09;2.65;;;0.52;;
28862;SDS011;15994;51.796;13.006;2024-02-23T14:00:37;3.20;;;0.80;;
28862;SDS011;15994;51.796;13.006;2024-02-23T14:03:04;5.00;;;1.00;;
28862;SDS011;15994;51.796;13.006;2024-02-23T14:05:31;4.05;;;0.85;;
28862;SDS011;15994;51.796;13.006;2024-02-23T14:07:58;3.95;;;0.80;;
28862;SDS011;15994;51.796;13.006;2024-02-23T14:10:25;2.47;;;0.63;;
28862;SDS011;15994;51.796;13.006;2024-02-23T14:12:52;4.93;;;0.80;;
28862;SDS011;15994;51.796;13.006;2024-02-23T14:15:20;4.65;;;0.88;;
28862;SDS011;15994;51.796;13.006;2024-02-23T14:17:47;2.80;;;0.80;;
28862;SDS011;15994;51.796;13.006;2024-02-23T14:20:14;4.05;;;0.70;;
28862;SDS011;15994;51.796;13.006;2024-02-23T14:22:41;3.40;;;0.80;;
28862;SDS011;15994;51.796;13.006;2024-02-23T14:25:08;3.25;;;0.82;;
28862;SDS011;15994;51.796;13.006;2024-02-23T14:27:35;3.55;;;1.02;;
28862;SDS011;15994;51.796;13.006;2024-02-23T14:30:02;4.50;;;0.80;;
28862;SDS011;15994;51.796;13.006;2024-02-23T14:32:29;3.28;;;0.80;;